Terminal Aerodrome Forecast
Issued by NWS

Home | Current Version | Previous Version | Text Only | Print | Product List | Glossary On
Versions: 1 2 3 4 5 6 7 8 9 10 11 12 13 14 15 16
925
FTPA31 PHFO 220828 AAA
TAFHLI
TAF AMD
PHLI 220828Z 2208/2306 01014G22KT 6SM -SHRA BKN025 OVC050
     FM221200 03012KT P6SM VCSH SCT025 BKN050
     FM222000 03015G23KT P6SM SCT025 SCT050
     FM230500 03012KT P6SM VCSH SCT025 BKN050=

USA.gov is the U.S. government's official web portal to all federal, state and local government web resources and services.